sensor_id;sensor_type;location;lat;lon;timestamp;temperature;humidity
3262;DHT22;1643;47.746;9.000;2022-07-19T00:01:45;22.80;90.20
3262;DHT22;1643;47.746;9.000;2022-07-19T00:04:11;22.60;90.00
3262;DHT22;1643;47.746;9.000;2022-07-19T00:06:36;22.30;90.20
3262;DHT22;1643;47.746;9.000;2022-07-19T00:09:03;22.20;90.30
3262;DHT22;1643;47.746;9.000;2022-07-19T00:11:29;22.70;91.40
3262;DHT22;1643;47.746;9.000;2022-07-19T00:13:54;22.50;91.30
3262;DHT22;1643;47.746;9.000;2022-07-19T00:16:20;22.20;91.20
3262;DHT22;1643;47.746;9.000;2022-07-19T00:18:46;22.60;91.50
3262;DHT22;1643;47.746;9.000;2022-07-19T00:21:11;22.40;91.30
3262;DHT22;1643;47.746;9.000;2022-07-19T00:23:37;22.00;91.60
3262;DHT22;1643;47.746;9.000;2022-07-19T00:26:02;22.40;91.80
3262;DHT22;1643;47.746;9.000;2022-07-19T00:28:28;22.10;91.50
3262;DHT22;1643;47.746;9.000;2022-07-19T00:30:54;21.90;92.00
3262;DHT22;1643;47.746;9.000;2022-07-19T00:33:19;21.70;91.90
3262;DHT22;1643;47.746;9.000;2022-07-19T00:35:45;21.70;92.00
3262;DHT22;1643;47.746;9.000;2022-07-19T00:38:12;22.20;92.30
3262;DHT22;1643;47.746;9.000;2022-07-19T00:40:39;22.50;91.80
3262;DHT22;1643;47.746;9.000;2022-07-19T00:43:06;22.20;91.80
3262;DHT22;1643;47.746;9.000;2022-07-19T00:45:31;21.90;91.80
3262;DHT22;1643;47.746;9.000;2022-07-19T00:47:57;21.70;91.90
3262;DHT22;1643;47.746;9.000;2022-07-19T00:50:22;21.50;92.00
3262;DHT22;1643;47.746;9.000;2022-07-19T00:53:06;21.40;92.00
3262;DHT22;1643;47.746;9.000;2022-07-19T00:55:33;21.80;92.50
3262;DHT22;1643;47.746;9.000;2022-07-19T00:57:59;21.60;92.40
3262;DHT22;1643;47.746;9.000;2022-07-19T01:00:26;21.30;92.40
3262;DHT22;1643;47.746;9.000;2022-07-19T01:02:52;21.30;92.40
3262;DHT22;1643;47.746;9.000;2022-07-19T01:05:17;21.20;92.10
3262;DHT22;1643;47.746;9.000;2022-07-19T01:07:43;21.20;92.00
3262;DHT22;1643;47.746;9.000;2022-07-19T01:10:09;21.10;91.80
3262;DHT22;1643;47.746;9.000;2022-07-19T01:12:35;21.00;91.70
3262;DHT22;1643;47.746;9.000;2022-07-19T01:15:01;20.90;91.70
3262;DHT22;1643;47.746;9.000;2022-07-19T01:17:27;20.90;91.80
3262;DHT22;1643;47.746;9.000;2022-07-19T01:19:53;20.80;91.90
3262;DHT22;1643;47.746;9.000;2022-07-19T01:22:19;20.70;92.20
3262;DHT22;1643;47.746;9.000;2022-07-19T01:24:45;20.70;92.10
3262;DHT22;1643;47.746;9.000;2022-07-19T01:27:10;20.80;92.10
3262;DHT22;1643;47.746;9.000;2022-07-19T01:29:36;20.80;92.00
3262;DHT22;1643;47.746;9.000;2022-07-19T01:32:02;20.80;92.00
3262;DHT22;1643;47.746;9.000;2022-07-19T01:34:28;20.70;92.00
3262;DHT22;1643;47.746;9.000;2022-07-19T01:36:54;20.70;92.10
3262;DHT22;1643;47.746;9.000;2022-07-19T01:39:19;20.60;92.10
3262;DHT22;1643;47.746;9.000;2022-07-19T01:41:45;20.60;92.30
3262;DHT22;1643;47.746;9.000;2022-07-19T01:44:10;20.50;92.30
3262;DHT22;1643;47.746;9.000;2022-07-19T01:46:36;20.60;92.60
3262;DHT22;1643;47.746;9.000;2022-07-19T01:49:01;20.40;92.80
3262;DHT22;1643;47.746;9.000;2022-07-19T01:51:27;20.50;92.80
3262;DHT22;1643;47.746;9.000;2022-07-19T01:53:52;20.60;92.80
3262;DHT22;1643;47.746;9.000;2022-07-19T01:56:18;20.60;92.70
3262;DHT22;1643;47.746;9.000;2022-07-19T01:58:43;20.60;92.60
3262;DHT22;1643;47.746;9.000;2022-07-19T02:01:09;20.70;92.50
3262;DHT22;1643;47.746;9.000;2022-07-19T02:03:34;20.70;92.50
3262;DHT22;1643;47.746;9.000;2022-07-19T02:06:00;20.60;92.40
3262;DHT22;1643;47.746;9.000;2022-07-19T02:08:25;20.60;92.40
3262;DHT22;1643;47.746;9.000;2022-07-19T02:10:51;20.60;92.20
3262;DHT22;1643;47.746;9.000;2022-07-19T02:13:16;20.60;92.10
3262;DHT22;1643;47.746;9.000;2022-07-19T02:15:42;20.50;92.30
3262;DHT22;1643;47.746;9.000;2022-07-19T02:18:07;20.50;91.90
3262;DHT22;1643;47.746;9.000;2022-07-19T02:20:33;20.50;91.70
3262;DHT22;1643;47.746;9.000;2022-07-19T02:22:58;20.40;91.70
3262;DHT22;1643;47.746;9.000;2022-07-19T02:25:24;20.20;91.80
3262;DHT22;1643;47.746;9.000;2022-07-19T02:27:49;20.20;92.00
3262;DHT22;1643;47.746;9.000;2022-07-19T02:30:15;20.10;92.10
3262;DHT22;1643;47.746;9.000;2022-07-19T02:32:42;20.00;92.20
3262;DHT22;1643;47.746;9.000;2022-07-19T02:35:08;20.10;92.40
3262;DHT22;1643;47.746;9.000;2022-07-19T02:37:34;20.10;92.40
3262;DHT22;1643;47.746;9.000;2022-07-19T02:39:59;20.10;92.40
3262;DHT22;1643;47.746;9.000;2022-07-19T02:42:25;20.00;92.40
3262;DHT22;1643;47.746;9.000;2022-07-19T02:44:51;20.00;92.60
3262;DHT22;1643;47.746;9.000;2022-07-19T02:47:16;20.10;92.70
3262;DHT22;1643;47.746;9.000;2022-07-19T02:49:42;20.10;92.70
3262;DHT22;1643;47.746;9.000;2022-07-19T02:52:07;20.10;92.90
3262;DHT22;1643;47.746;9.000;2022-07-19T02:54:33;20.10;93.00
3262;DHT22;1643;47.746;9.000;2022-07-19T02:56:58;20.00;93.30
3262;DHT22;1643;47.746;9.000;2022-07-19T02:59:24;19.90;93.40
3262;DHT22;1643;47.746;9.000;2022-07-19T03:01:49;19.90;93.50
3262;DHT22;1643;47.746;9.000;2022-07-19T03:04:15;19.90;93.50
3262;DHT22;1643;47.746;9.000;2022-07-19T03:06:40;19.90;93.60
3262;DHT22;1643;47.746;9.000;2022-07-19T03:09:06;19.90;93.60
3262;DHT22;1643;47.746;9.000;2022-07-19T03:11:31;19.90;93.60
3262;DHT22;1643;47.746;9.000;2022-07-19T03:13:57;19.90;93.70
3262;DHT22;1643;47.746;9.000;2022-07-19T03:16:22;19.80;93.70
3262;DHT22;1643;47.746;9.000;2022-07-19T03:18:48;19.80;93.70
3262;DHT22;1643;47.746;9.000;2022-07-19T03:21:13;19.80;93.70
3262;DHT22;1643;47.746;9.000;2022-07-19T03:23:40;19.60;93.90
3262;DHT22;1643;47.746;9.000;2022-07-19T03:26:05;19.50;94.00
3262;DHT22;1643;47.746;9.000;2022-07-19T03:28:31;19.50;93.90
3262;DHT22;1643;47.746;9.000;2022-07-19T03:30:57;19.50;93.80
3262;DHT22;1643;47.746;9.000;2022-07-19T03:33:22;19.50;94.00
3262;DHT22;1643;47.746;9.000;2022-07-19T03:35:48;19.50;93.90
3262;DHT22;1643;47.746;9.000;2022-07-19T03:38:14;19.60;93.90
3262;DHT22;1643;47.746;9.000;2022-07-19T03:40:41;19.60;93.90
3262;DHT22;1643;47.746;9.000;2022-07-19T03:43:07;19.60;94.00
3262;DHT22;1643;47.746;9.000;2022-07-19T03:45:33;19.60;94.00
3262;DHT22;1643;47.746;9.000;2022-07-19T03:47:59;19.60;94.00
3262;DHT22;1643;47.746;9.000;2022-07-19T03:50:25;19.60;94.00
3262;DHT22;1643;47.746;9.000;2022-07-19T03:52:51;19.60;93.90
3262;DHT22;1643;47.746;9.000;2022-07-19T03:55:16;19.50;93.80
3262;DHT22;1643;47.746;9.000;2022-07-19T03:57:42;19.50;93.80
3262;DHT22;1643;47.746;9.000;2022-07-19T04:00:07;19.40;93.80
3262;DHT22;1643;47.746;9.000;2022-07-19T04:02:33;19.40;94.00
3262;DHT22;1643;47.746;9.000;2022-07-19T04:04:59;19.40;94.00
3262;DHT22;1643;47.746;9.000;2022-07-19T04:07:24;19.30;94.20
3262;DHT22;1643;47.746;9.000;2022-07-19T04:09:50;19.20;94.30
3262;DHT22;1643;47.746;9.000;2022-07-19T04:12:15;19.20;94.40
3262;DHT22;1643;47.746;9.000;2022-07-19T04:14:41;19.20;94.40
3262;DHT22;1643;47.746;9.000;2022-07-19T04:17:06;19.20;94.60
3262;DHT22;1643;47.746;9.000;2022-07-19T04:19:32;19.20;94.70
3262;DHT22;1643;47.746;9.000;2022-07-19T04:21:57;19.20;94.70
3262;DHT22;1643;47.746;9.000;2022-07-19T04:24:23;19.30;94.80
3262;DHT22;1643;47.746;9.000;2022-07-19T04:26:48;19.40;94.70
3262;DHT22;1643;47.746;9.000;2022-07-19T04:29:14;19.40;94.70
3262;DHT22;1643;47.746;9.000;2022-07-19T04:31:39;19.40;94.60
3262;DHT22;1643;47.746;9.000;2022-07-19T04:34:05;19.40;94.50
3262;DHT22;1643;47.746;9.000;2022-07-19T04:36:31;19.40;94.50
3262;DHT22;1643;47.746;9.000;2022-07-19T04:38:56;19.30;94.50
3262;DHT22;1643;47.746;9.000;2022-07-19T04:41:22;19.30;94.70
3262;DHT22;1643;47.746;9.000;2022-07-19T04:43:47;19.40;94.80
3262;DHT22;1643;47.746;9.000;2022-07-19T04:46:13;19.40;94.90
3262;DHT22;1643;47.746;9.000;2022-07-19T04:48:38;19.40;94.90
3262;DHT22;1643;47.746;9.000;2022-07-19T04:51:06;19.50;95.10
3262;DHT22;1643;47.746;9.000;2022-07-19T04:53:32;19.50;95.10
3262;DHT22;1643;47.746;9.000;2022-07-19T04:55:57;19.50;95.10
3262;DHT22;1643;47.746;9.000;2022-07-19T04:58:23;19.40;95.10
3262;DHT22;1643;47.746;9.000;2022-07-19T05:00:48;19.50;95.10
3262;DHT22;1643;47.746;9.000;2022-07-19T05:03:14;19.60;95.00
3262;DHT22;1643;47.746;9.000;2022-07-19T05:05:39;19.60;94.90
3262;DHT22;1643;47.746;9.000;2022-07-19T05:08:05;19.70;94.90
3262;DHT22;1643;47.746;9.000;2022-07-19T05:10:30;19.80;94.90
3262;DHT22;1643;47.746;9.000;2022-07-19T05:12:56;19.80;95.00
3262;DHT22;1643;47.746;9.000;2022-07-19T05:15:21;19.80;95.00
3262;DHT22;1643;47.746;9.000;2022-07-19T05:17:47;19.90;95.10
3262;DHT22;1643;47.746;9.000;2022-07-19T05:20:12;20.00;95.10
3262;DHT22;1643;47.746;9.000;2022-07-19T05:22:40;20.00;95.20
3262;DHT22;1643;47.746;9.000;2022-07-19T05:25:06;20.10;95.10
3262;DHT22;1643;47.746;9.000;2022-07-19T05:27:31;20.10;95.10
3262;DHT22;1643;47.746;9.000;2022-07-19T05:29:57;20.10;95.30
3262;DHT22;1643;47.746;9.000;2022-07-19T05:32:22;20.20;94.80
3262;DHT22;1643;47.746;9.000;2022-07-19T05:34:48;20.30;94.70
3262;DHT22;1643;47.746;9.000;2022-07-19T05:37:14;20.30;94.50
3262;DHT22;1643;47.746;9.000;2022-07-19T05:39:39;20.50;94.30
3262;DHT22;1643;47.746;9.000;2022-07-19T05:42:05;20.50;94.10
3262;DHT22;1643;47.746;9.000;2022-07-19T05:44:30;20.60;93.90
3262;DHT22;1643;47.746;9.000;2022-07-19T05:46:56;20.70;93.80
3262;DHT22;1643;47.746;9.000;2022-07-19T05:49:21;20.80;93.60
3262;DHT22;1643;47.746;9.000;2022-07-19T05:51:47;20.80;93.50
3262;DHT22;1643;47.746;9.000;2022-07-19T05:54:12;20.90;93.30
3262;DHT22;1643;47.746;9.000;2022-07-19T05:56:38;20.80;93.00
3262;DHT22;1643;47.746;9.000;2022-07-19T05:59:03;20.80;92.80
3262;DHT22;1643;47.746;9.000;2022-07-19T06:01:29;20.90;92.80
3262;DHT22;1643;47.746;9.000;2022-07-19T06:03:55;21.00;92.70
3262;DHT22;1643;47.746;9.000;2022-07-19T06:06:21;21.00;92.60
3262;DHT22;1643;47.746;9.000;2022-07-19T06:08:47;21.10;92.60
3262;DHT22;1643;47.746;9.000;2022-07-19T06:11:13;21.10;92.50
3262;DHT22;1643;47.746;9.000;2022-07-19T06:13:39;21.20;92.50
3262;DHT22;1643;47.746;9.000;2022-07-19T06:16:05;21.30;92.40
3262;DHT22;1643;47.746;9.000;2022-07-19T06:18:32;21.30;92.20
3262;DHT22;1643;47.746;9.000;2022-07-19T06:21:00;21.40;92.10
3262;DHT22;1643;47.746;9.000;2022-07-19T06:23:26;21.50;92.00
3262;DHT22;1643;47.746;9.000;2022-07-19T06:25:52;21.70;92.00
3262;DHT22;1643;47.746;9.000;2022-07-19T06:28:17;21.80;91.80
3262;DHT22;1643;47.746;9.000;2022-07-19T06:30:43;21.80;91.70
3262;DHT22;1643;47.746;9.000;2022-07-19T06:33:09;21.90;91.60
3262;DHT22;1643;47.746;9.000;2022-07-19T06:35:34;22.00;91.50
3262;DHT22;1643;47.746;9.000;2022-07-19T06:38:00;22.00;91.40
3262;DHT22;1643;47.746;9.000;2022-07-19T06:40:26;22.20;91.50
3262;DHT22;1643;47.746;9.000;2022-07-19T06:42:51;22.30;91.40
3262;DHT22;1643;47.746;9.000;2022-07-19T06:45:17;22.40;91.20
3262;DHT22;1643;47.746;9.000;2022-07-19T06:47:42;22.60;91.20
3262;DHT22;1643;47.746;9.000;2022-07-19T06:50:08;22.60;91.10
3262;DHT22;1643;47.746;9.000;2022-07-19T06:52:34;22.70;91.10
3262;DHT22;1643;47.746;9.000;2022-07-19T06:54:59;22.80;91.00
3262;DHT22;1643;47.746;9.000;2022-07-19T06:57:25;22.90;91.00
3262;DHT22;1643;47.746;9.000;2022-07-19T06:59:50;22.90;91.00
3262;DHT22;1643;47.746;9.000;2022-07-19T07:02:16;23.00;91.00
3262;DHT22;1643;47.746;9.000;2022-07-19T07:04:41;23.00;90.90
3262;DHT22;1643;47.746;9.000;2022-07-19T07:07:07;23.00;90.90
3262;DHT22;1643;47.746;9.000;2022-07-19T07:09:32;23.10;90.90
3262;DHT22;1643;47.746;9.000;2022-07-19T07:11:58;23.10;90.70
3262;DHT22;1643;47.746;9.000;2022-07-19T07:14:23;23.10;90.70
3262;DHT22;1643;47.746;9.000;2022-07-19T07:16:49;23.10;90.70
3262;DHT22;1643;47.746;9.000;2022-07-19T07:19:14;23.20;90.70
3262;DHT22;1643;47.746;9.000;2022-07-19T07:21:40;23.30;90.70
3262;DHT22;1643;47.746;9.000;2022-07-19T07:24:05;23.30;90.60
3262;DHT22;1643;47.746;9.000;2022-07-19T07:26:31;23.40;90.50
3262;DHT22;1643;47.746;9.000;2022-07-19T07:28:57;23.40;90.40
3262;DHT22;1643;47.746;9.000;2022-07-19T07:31:23;23.50;90.40
3262;DHT22;1643;47.746;9.000;2022-07-19T07:33:48;23.50;90.30
3262;DHT22;1643;47.746;9.000;2022-07-19T07:36:14;23.60;90.20
3262;DHT22;1643;47.746;9.000;2022-07-19T07:38:39;23.70;90.10
3262;DHT22;1643;47.746;9.000;2022-07-19T07:41:05;23.70;90.10
3262;DHT22;1643;47.746;9.000;2022-07-19T07:43:31;23.70;90.10
3262;DHT22;1643;47.746;9.000;2022-07-19T07:45:56;23.80;90.40
3262;DHT22;1643;47.746;9.000;2022-07-19T07:48:22;23.90;90.10
3262;DHT22;1643;47.746;9.000;2022-07-19T07:50:47;24.00;90.00
3262;DHT22;1643;47.746;9.000;2022-07-19T07:53:13;23.90;89.90
3262;DHT22;1643;47.746;9.000;2022-07-19T07:55:38;24.00;90.00
3262;DHT22;1643;47.746;9.000;2022-07-19T07:58:07;24.00;89.70
3262;DHT22;1643;47.746;9.000;2022-07-19T08:00:33;24.00;89.40
3262;DHT22;1643;47.746;9.000;2022-07-19T08:02:58;24.00;89.50
3262;DHT22;1643;47.746;9.000;2022-07-19T08:05:24;24.10;89.50
3262;DHT22;1643;47.746;9.000;2022-07-19T08:07:50;24.10;89.20
3262;DHT22;1643;47.746;9.000;2022-07-19T08:10:15;24.20;89.40
3262;DHT22;1643;47.746;9.000;2022-07-19T08:12:41;24.20;88.90
3262;DHT22;1643;47.746;9.000;2022-07-19T08:15:07;24.60;87.70
3262;DHT22;1643;47.746;9.000;2022-07-19T08:17:33;24.90;87.70
3262;DHT22;1643;47.746;9.000;2022-07-19T08:19:58;25.00;87.50
3262;DHT22;1643;47.746;9.000;2022-07-19T08:22:25;25.20;85.60
3262;DHT22;1643;47.746;9.000;2022-07-19T08:24:50;25.30;86.30
3262;DHT22;1643;47.746;9.000;2022-07-19T08:27:16;25.50;84.70
3262;DHT22;1643;47.746;9.000;2022-07-19T08:29:41;25.50;84.80
3262;DHT22;1643;47.746;9.000;2022-07-19T08:32:07;25.60;84.90
3262;DHT22;1643;47.746;9.000;2022-07-19T08:34:33;25.70;85.20
3262;DHT22;1643;47.746;9.000;2022-07-19T08:36:58;25.70;84.20
3262;DHT22;1643;47.746;9.000;2022-07-19T08:39:25;25.70;84.30
3262;DHT22;1643;47.746;9.000;2022-07-19T08:41:51;25.80;84.70
3262;DHT22;1643;47.746;9.000;2022-07-19T08:44:17;25.90;84.40
3262;DHT22;1643;47.746;9.000;2022-07-19T08:46:43;25.90;84.40
3262;DHT22;1643;47.746;9.000;2022-07-19T08:49:09;26.00;84.40
3262;DHT22;1643;47.746;9.000;2022-07-19T08:51:35;26.00;84.50
3262;DHT22;1643;47.746;9.000;2022-07-19T08:54:01;26.00;83.30
3262;DHT22;1643;47.746;9.000;2022-07-19T08:56:27;25.60;84.90
3262;DHT22;1643;47.746;9.000;2022-07-19T08:59:12;25.30;84.90
3262;DHT22;1643;47.746;9.000;2022-07-19T09:01:38;25.30;85.50
3262;DHT22;1643;47.746;9.000;2022-07-19T09:06:42;25.20;86.20
3262;DHT22;1643;47.746;9.000;2022-07-19T09:09:08;25.10;86.50
3262;DHT22;1643;47.746;9.000;2022-07-19T09:11:34;25.10;86.80
3262;DHT22;1643;47.746;9.000;2022-07-19T09:14:07;25.20;87.00
3262;DHT22;1643;47.746;9.000;2022-07-19T09:16:49;25.10;86.90
3262;DHT22;1643;47.746;9.000;2022-07-19T09:19:15;25.20;87.20
3262;DHT22;1643;47.746;9.000;2022-07-19T09:24:21;25.30;87.10
3262;DHT22;1643;47.746;9.000;2022-07-19T09:27:01;25.30;86.90
3262;DHT22;1643;47.746;9.000;2022-07-19T09:29:27;25.30;87.00
3262;DHT22;1643;47.746;9.000;2022-07-19T09:34:35;25.40;86.50
3262;DHT22;1643;47.746;9.000;2022-07-19T09:39:54;25.40;85.30
3262;DHT22;1643;47.746;9.000;2022-07-19T09:42:21;25.50;84.80
3262;DHT22;1643;47.746;9.000;2022-07-19T09:44:54;25.50;84.80
3262;DHT22;1643;47.746;9.000;2022-07-19T09:47:29;25.60;84.90
3262;DHT22;1643;47.746;9.000;2022-07-19T09:49:55;25.70;84.90
3262;DHT22;1643;47.746;9.000;2022-07-19T09:52:20;25.80;84.60
3262;DHT22;1643;47.746;9.000;2022-07-19T09:54:46;25.90;84.60
3262;DHT22;1643;47.746;9.000;2022-07-19T09:57:12;26.00;84.50
3262;DHT22;1643;47.746;9.000;2022-07-19T09:59:43;26.00;84.10
3262;DHT22;1643;47.746;9.000;2022-07-19T10:02:10;26.00;84.00
3262;DHT22;1643;47.746;9.000;2022-07-19T10:04:36;26.10;84.10
3262;DHT22;1643;47.746;9.000;2022-07-19T10:07:02;26.10;83.70
3262;DHT22;1643;47.746;9.000;2022-07-19T10:09:28;26.10;83.60
3262;DHT22;1643;47.746;9.000;2022-07-19T10:11:54;26.10;83.60
3262;DHT22;1643;47.746;9.000;2022-07-19T10:14:20;26.20;83.50
3262;DHT22;1643;47.746;9.000;2022-07-19T10:19:37;26.30;83.20
3262;DHT22;1643;47.746;9.000;2022-07-19T10:22:03;26.30;83.20
3262;DHT22;1643;47.746;9.000;2022-07-19T10:27:14;26.50;82.90
3262;DHT22;1643;47.746;9.000;2022-07-19T10:29:39;26.50;82.70
3262;DHT22;1643;47.746;9.000;2022-07-19T10:32:06;26.60;82.30
3262;DHT22;1643;47.746;9.000;2022-07-19T10:34:32;26.70;82.40
3262;DHT22;1643;47.746;9.000;2022-07-19T10:36:58;26.80;82.30
3262;DHT22;1643;47.746;9.000;2022-07-19T10:39:30;26.70;82.50
3262;DHT22;1643;47.746;9.000;2022-07-19T10:42:12;26.90;82.40
3262;DHT22;1643;47.746;9.000;2022-07-19T10:47:19;27.10;82.30
3262;DHT22;1643;47.746;9.000;2022-07-19T10:49:45;27.00;82.00
3262;DHT22;1643;47.746;9.000;2022-07-19T10:52:33;27.10;82.30
3262;DHT22;1643;47.746;9.000;2022-07-19T10:57:41;27.20;82.50
3262;DHT22;1643;47.746;9.000;2022-07-19T11:00:17;27.20;82.20
3262;DHT22;1643;47.746;9.000;2022-07-19T11:02:42;27.30;82.00
3262;DHT22;1643;47.746;9.000;2022-07-19T11:05:19;27.30;81.90
3262;DHT22;1643;47.746;9.000;2022-07-19T11:07:48;27.40;81.50
3262;DHT22;1643;47.746;9.000;2022-07-19T11:10:20;27.30;81.40
3262;DHT22;1643;47.746;9.000;2022-07-19T11:12:46;27.40;81.50
3262;DHT22;1643;47.746;9.000;2022-07-19T11:15:12;27.50;81.70
3262;DHT22;1643;47.746;9.000;2022-07-19T11:17:38;27.50;81.40
3262;DHT22;1643;47.746;9.000;2022-07-19T11:20:08;27.60;81.40
3262;DHT22;1643;47.746;9.000;2022-07-19T11:22:40;27.60;81.30
3262;DHT22;1643;47.746;9.000;2022-07-19T11:25:06;27.60;81.00
3262;DHT22;1643;47.746;9.000;2022-07-19T11:27:32;27.70;80.80
3262;DHT22;1643;47.746;9.000;2022-07-19T11:29:59;27.80;80.90
3262;DHT22;1643;47.746;9.000;2022-07-19T11:32:25;27.90;80.80
3262;DHT22;1643;47.746;9.000;2022-07-19T11:35:01;27.90;80.30
3262;DHT22;1643;47.746;9.000;2022-07-19T11:37:28;28.00;80.40
3262;DHT22;1643;47.746;9.000;2022-07-19T11:39:54;28.10;80.40
3262;DHT22;1643;47.746;9.000;2022-07-19T11:44:57;28.20;80.00
3262;DHT22;1643;47.746;9.000;2022-07-19T11:47:23;28.30;79.80
3262;DHT22;1643;47.746;9.000;2022-07-19T11:49:49;28.30;79.80
3262;DHT22;1643;47.746;9.000;2022-07-19T11:52:14;28.40;79.80
3262;DHT22;1643;47.746;9.000;2022-07-19T11:54:40;28.40;79.50
3262;DHT22;1643;47.746;9.000;2022-07-19T11:57:21;28.50;79.40
3262;DHT22;1643;47.746;9.000;2022-07-19T11:59:47;28.70;78.60
3262;DHT22;1643;47.746;9.000;2022-07-19T12:02:12;28.70;78.30
3262;DHT22;1643;47.746;9.000;2022-07-19T12:04:38;28.90;78.30
3262;DHT22;1643;47.746;9.000;2022-07-19T12:07:06;29.00;77.90
3262;DHT22;1643;47.746;9.000;2022-07-19T12:09:32;29.00;78.00
3262;DHT22;1643;47.746;9.000;2022-07-19T12:11:59;29.00;78.40
3262;DHT22;1643;47.746;9.000;2022-07-19T12:14:29;29.20;78.20
3262;DHT22;1643;47.746;9.000;2022-07-19T12:20:09;29.30;76.10
3262;DHT22;1643;47.746;9.000;2022-07-19T12:22:36;29.40;75.40
3262;DHT22;1643;47.746;9.000;2022-07-19T12:25:03;29.40;75.60
3262;DHT22;1643;47.746;9.000;2022-07-19T12:27:29;29.50;75.50
3262;DHT22;1643;47.746;9.000;2022-07-19T12:29:55;29.60;74.50
3262;DHT22;1643;47.746;9.000;2022-07-19T12:32:28;29.70;74.90
3262;DHT22;1643;47.746;9.000;2022-07-19T12:34:58;29.70;74.40
3262;DHT22;1643;47.746;9.000;2022-07-19T12:37:30;29.70;74.00
3262;DHT22;1643;47.746;9.000;2022-07-19T12:40:00;29.80;74.00
3262;DHT22;1643;47.746;9.000;2022-07-19T12:42:34;29.90;73.80
3262;DHT22;1643;47.746;9.000;2022-07-19T12:45:00;30.10;73.80
3262;DHT22;1643;47.746;9.000;2022-07-19T12:47:26;30.10;73.10
3262;DHT22;1643;47.746;9.000;2022-07-19T12:49:51;30.20;72.00
3262;DHT22;1643;47.746;9.000;2022-07-19T12:52:17;30.20;71.20
3262;DHT22;1643;47.746;9.000;2022-07-19T12:54:42;30.20;71.20
3262;DHT22;1643;47.746;9.000;2022-07-19T12:57:08;30.20;71.90
3262;DHT22;1643;47.746;9.000;2022-07-19T12:59:34;30.30;71.50
3262;DHT22;1643;47.746;9.000;2022-07-19T13:02:14;30.20;71.10
3262;DHT22;1643;47.746;9.000;2022-07-19T13:04:40;30.30;71.40
3262;DHT22;1643;47.746;9.000;2022-07-19T13:07:07;30.40;71.40
3262;DHT22;1643;47.746;9.000;2022-07-19T13:09:33;30.40;71.10
3262;DHT22;1643;47.746;9.000;2022-07-19T13:11:59;30.40;70.80
3262;DHT22;1643;47.746;9.000;2022-07-19T13:14:25;30.50;70.80
3262;DHT22;1643;47.746;9.000;2022-07-19T13:16:51;30.70;70.20
3262;DHT22;1643;47.746;9.000;2022-07-19T13:19:16;30.70;69.50
3262;DHT22;1643;47.746;9.000;2022-07-19T13:21:42;30.70;69.40
3262;DHT22;1643;47.746;9.000;2022-07-19T13:24:08;30.80;68.80
3262;DHT22;1643;47.746;9.000;2022-07-19T13:26:33;30.80;68.60
3262;DHT22;1643;47.746;9.000;2022-07-19T13:28:59;30.90;68.10
3262;DHT22;1643;47.746;9.000;2022-07-19T13:31:24;31.00;67.50
3262;DHT22;1643;47.746;9.000;2022-07-19T13:33:50;30.90;67.10
3262;DHT22;1643;47.746;9.000;2022-07-19T13:36:15;31.00;66.80
3262;DHT22;1643;47.746;9.000;2022-07-19T13:38:41;31.10;67.00
3262;DHT22;1643;47.746;9.000;2022-07-19T13:41:07;31.20;65.60
3262;DHT22;1643;47.746;9.000;2022-07-19T13:43:33;31.30;65.90
3262;DHT22;1643;47.746;9.000;2022-07-19T13:45:59;31.30;65.70
3262;DHT22;1643;47.746;9.000;2022-07-19T13:48:25;31.30;65.60
3262;DHT22;1643;47.746;9.000;2022-07-19T13:50:50;31.30;65.60
3262;DHT22;1643;47.746;9.000;2022-07-19T13:53:16;31.40;64.50
3262;DHT22;1643;47.746;9.000;2022-07-19T13:55:42;31.40;64.20
3262;DHT22;1643;47.746;9.000;2022-07-19T13:58:07;31.50;62.30
3262;DHT22;1643;47.746;9.000;2022-07-19T14:00:32;31.60;63.30
3262;DHT22;1643;47.746;9.000;2022-07-19T14:02:58;31.60;62.40
3262;DHT22;1643;47.746;9.000;2022-07-19T14:05:24;31.70;61.60
3262;DHT22;1643;47.746;9.000;2022-07-19T14:07:49;31.70;61.50
3262;DHT22;1643;47.746;9.000;2022-07-19T14:10:15;31.70;62.00
3262;DHT22;1643;47.746;9.000;2022-07-19T14:12:40;31.70;61.00
3262;DHT22;1643;47.746;9.000;2022-07-19T14:15:06;31.70;61.40
3262;DHT22;1643;47.746;9.000;2022-07-19T14:17:35;31.80;60.90
3262;DHT22;1643;47.746;9.000;2022-07-19T14:20:02;31.80;60.80
3262;DHT22;1643;47.746;9.000;2022-07-19T14:22:28;31.90;60.80
3262;DHT22;1643;47.746;9.000;2022-07-19T14:24:53;32.00;60.70
3262;DHT22;1643;47.746;9.000;2022-07-19T14:27:19;32.00;60.60
3262;DHT22;1643;47.746;9.000;2022-07-19T14:29:45;32.00;61.10
3262;DHT22;1643;47.746;9.000;2022-07-19T14:32:10;32.10;61.00
3262;DHT22;1643;47.746;9.000;2022-07-19T14:34:36;32.20;61.20
3262;DHT22;1643;47.746;9.000;2022-07-19T14:37:03;32.20;61.20
3262;DHT22;1643;47.746;9.000;2022-07-19T14:39:28;32.30;61.00
3262;DHT22;1643;47.746;9.000;2022-07-19T14:41:54;32.20;60.40
3262;DHT22;1643;47.746;9.000;2022-07-19T14:44:20;32.20;60.60
3262;DHT22;1643;47.746;9.000;2022-07-19T14:46:46;32.20;61.00
3262;DHT22;1643;47.746;9.000;2022-07-19T14:49:12;32.20;61.10
3262;DHT22;1643;47.746;9.000;2022-07-19T14:51:38;32.20;61.00
3262;DHT22;1643;47.746;9.000;2022-07-19T14:54:03;32.20;60.90
3262;DHT22;1643;47.746;9.000;2022-07-19T14:56:29;32.30;60.30
3262;DHT22;1643;47.746;9.000;2022-07-19T14:58:54;32.30;60.90
3262;DHT22;1643;47.746;9.000;2022-07-19T15:01:20;32.40;60.60
3262;DHT22;1643;47.746;9.000;2022-07-19T15:03:47;32.50;60.80
3262;DHT22;1643;47.746;9.000;2022-07-19T15:06:12;32.50;61.20
3262;DHT22;1643;47.746;9.000;2022-07-19T15:08:38;32.50;61.50
3262;DHT22;1643;47.746;9.000;2022-07-19T15:11:04;32.60;61.60
3262;DHT22;1643;47.746;9.000;2022-07-19T15:13:30;32.60;61.30
3262;DHT22;1643;47.746;9.000;2022-07-19T15:15:55;32.60;60.80
3262;DHT22;1643;47.746;9.000;2022-07-19T15:18:21;32.60;60.50
3262;DHT22;1643;47.746;9.000;2022-07-19T15:20:46;32.60;60.30
3262;DHT22;1643;47.746;9.000;2022-07-19T15:23:12;32.60;60.60
3262;DHT22;1643;47.746;9.000;2022-07-19T15:25:37;32.60;61.00
3262;DHT22;1643;47.746;9.000;2022-07-19T15:28:03;32.70;61.40
3262;DHT22;1643;47.746;9.000;2022-07-19T15:30:28;32.70;61.40
3262;DHT22;1643;47.746;9.000;2022-07-19T15:32:54;32.70;61.00
3262;DHT22;1643;47.746;9.000;2022-07-19T15:35:19;32.60;60.50
3262;DHT22;1643;47.746;9.000;2022-07-19T15:37:45;32.70;59.90
3262;DHT22;1643;47.746;9.000;2022-07-19T15:40:11;32.60;59.70
3262;DHT22;1643;47.746;9.000;2022-07-19T15:42:42;32.60;59.70
3262;DHT22;1643;47.746;9.000;2022-07-19T15:45:08;32.60;60.00
3262;DHT22;1643;47.746;9.000;2022-07-19T15:47:33;32.60;59.70
3262;DHT22;1643;47.746;9.000;2022-07-19T15:49:59;32.70;59.40
3262;DHT22;1643;47.746;9.000;2022-07-19T15:52:24;32.60;59.40
3262;DHT22;1643;47.746;9.000;2022-07-19T15:54:50;32.60;59.60
3262;DHT22;1643;47.746;9.000;2022-07-19T15:57:15;32.60;60.10
3262;DHT22;1643;47.746;9.000;2022-07-19T15:59:41;32.60;60.30
3262;DHT22;1643;47.746;9.000;2022-07-19T16:02:06;32.70;60.50
3262;DHT22;1643;47.746;9.000;2022-07-19T16:04:32;32.80;60.30
3262;DHT22;1643;47.746;9.000;2022-07-19T16:06:57;32.80;60.10
3262;DHT22;1643;47.746;9.000;2022-07-19T16:09:23;32.80;59.60
3262;DHT22;1643;47.746;9.000;2022-07-19T16:11:48;32.70;59.50
3262;DHT22;1643;47.746;9.000;2022-07-19T16:14:14;32.80;59.70
3262;DHT22;1643;47.746;9.000;2022-07-19T16:16:39;32.70;59.90
3262;DHT22;1643;47.746;9.000;2022-07-19T16:19:05;32.70;60.10
3262;DHT22;1643;47.746;9.000;2022-07-19T16:21:31;32.80;59.90
3262;DHT22;1643;47.746;9.000;2022-07-19T16:23:56;32.70;59.90